sensor_id;sensor_type;location;lat;lon;timestamp;P1;durP1;ratioP1;P2;durP2;ratioP2
51248;SDS011;39642;47.556;18.728;2023-03-23T00:00:16;10.65;;;4.72;;
51248;SDS011;39642;47.556;18.728;2023-03-23T00:02:42;11.10;;;4.45;;
51248;SDS011;39642;47.556;18.728;2023-03-23T00:05:09;10.77;;;4.60;;
51248;SDS011;39642;47.556;18.728;2023-03-23T00:07:35;13.07;;;4.97;;
51248;SDS011;39642;47.556;18.728;2023-03-23T00:10:01;12.27;;;5.00;;
51248;SDS011;39642;47.556;18.728;2023-03-23T00:12:28;11.18;;;4.55;;
51248;SDS011;39642;47.556;18.728;2023-03-23T00:15:07;11.27;;;4.70;;
51248;SDS011;39642;47.556;18.728;2023-03-23T00:17:38;12.27;;;4.90;;
51248;SDS011;39642;47.556;18.728;2023-03-23T00:20:06;12.48;;;5.10;;
51248;SDS011;39642;47.556;18.728;2023-03-23T00:22:33;12.98;;;5.05;;
51248;SDS011;39642;47.556;18.728;2023-03-23T00:25:03;11.38;;;4.80;;
51248;SDS011;39642;47.556;18.728;2023-03-23T00:27:30;11.35;;;4.80;;
51248;SDS011;39642;47.556;18.728;2023-03-23T00:29:56;11.23;;;5.00;;
51248;SDS011;39642;47.556;18.728;2023-03-23T00:32:23;13.02;;;5.07;;
51248;SDS011;39642;47.556;18.728;2023-03-23T00:34:54;12.50;;;4.93;;
51248;SDS011;39642;47.556;18.728;2023-03-23T00:37:21;11.75;;;4.90;;
51248;SDS011;39642;47.556;18.728;2023-03-23T00:39:48;11.32;;;4.53;;
51248;SDS011;39642;47.556;18.728;2023-03-23T00:42:14;10.85;;;4.62;;
51248;SDS011;39642;47.556;18.728;2023-03-23T00:44:42;12.70;;;5.07;;
51248;SDS011;39642;47.556;18.728;2023-03-23T00:47:09;11.25;;;4.40;;
51248;SDS011;39642;47.556;18.728;2023-03-23T00:49:36;11.07;;;4.62;;
51248;SDS011;39642;47.556;18.728;2023-03-23T00:52:03;10.63;;;4.40;;
51248;SDS011;39642;47.556;18.728;2023-03-23T00:54:31;12.43;;;4.68;;
51248;SDS011;39642;47.556;18.728;2023-03-23T00:56:57;10.60;;;4.80;;
51248;SDS011;39642;47.556;18.728;2023-03-23T00:59:23;12.07;;;4.82;;
51248;SDS011;39642;47.556;18.728;2023-03-23T01:01:49;11.75;;;4.47;;
51248;SDS011;39642;47.556;18.728;2023-03-23T01:04:15;11.60;;;4.40;;
51248;SDS011;39642;47.556;18.728;2023-03-23T01:06:42;11.38;;;4.68;;
51248;SDS011;39642;47.556;18.728;2023-03-23T01:09:11;12.48;;;4.90;;
51248;SDS011;39642;47.556;18.728;2023-03-23T01:11:45;11.85;;;4.62;;
51248;SDS011;39642;47.556;18.728;2023-03-23T01:14:12;12.43;;;4.62;;
51248;SDS011;39642;47.556;18.728;2023-03-23T01:16:39;11.63;;;4.60;;
51248;SDS011;39642;47.556;18.728;2023-03-23T01:19:05;11.65;;;4.40;;
51248;SDS011;39642;47.556;18.728;2023-03-23T01:21:31;12.07;;;4.95;;
51248;SDS011;39642;47.556;18.728;2023-03-23T01:23:57;12.35;;;4.57;;
51248;SDS011;39642;47.556;18.728;2023-03-23T01:26:24;12.18;;;4.68;;
51248;SDS011;39642;47.556;18.728;2023-03-23T01:28:52;12.35;;;4.60;;
51248;SDS011;39642;47.556;18.728;2023-03-23T01:31:20;11.38;;;5.10;;
51248;SDS011;39642;47.556;18.728;2023-03-23T01:33:49;11.10;;;4.87;;
51248;SDS011;39642;47.556;18.728;2023-03-23T01:36:20;11.75;;;4.57;;
51248;SDS011;39642;47.556;18.728;2023-03-23T01:38:49;10.70;;;3.95;;
51248;SDS011;39642;47.556;18.728;2023-03-23T01:41:16;11.12;;;4.37;;
51248;SDS011;39642;47.556;18.728;2023-03-23T01:46:30;11.40;;;4.65;;
51248;SDS011;39642;47.556;18.728;2023-03-23T01:48:58;11.95;;;4.40;;
51248;SDS011;39642;47.556;18.728;2023-03-23T01:51:32;10.88;;;4.32;;
51248;SDS011;39642;47.556;18.728;2023-03-23T01:54:02;11.63;;;4.47;;
51248;SDS011;39642;47.556;18.728;2023-03-23T01:56:34;10.65;;;4.30;;
51248;SDS011;39642;47.556;18.728;2023-03-23T01:59:07;10.18;;;4.03;;
51248;SDS011;39642;47.556;18.728;2023-03-23T02:01:34;10.63;;;4.00;;
51248;SDS011;39642;47.556;18.728;2023-03-23T02:04:03;11.45;;;4.18;;
51248;SDS011;39642;47.556;18.728;2023-03-23T02:06:30;10.50;;;4.07;;
51248;SDS011;39642;47.556;18.728;2023-03-23T02:08:57;10.68;;;4.45;;
51248;SDS011;39642;47.556;18.728;2023-03-23T02:11:23;11.18;;;4.18;;
51248;SDS011;39642;47.556;18.728;2023-03-23T02:13:49;11.45;;;4.45;;
51248;SDS011;39642;47.556;18.728;2023-03-23T02:19:23;9.98;;;4.05;;
51248;SDS011;39642;47.556;18.728;2023-03-23T02:24:53;11.80;;;4.20;;
51248;SDS011;39642;47.556;18.728;2023-03-23T02:35:52;9.90;;;3.67;;
51248;SDS011;39642;47.556;18.728;2023-03-23T02:38:23;10.32;;;3.92;;
51248;SDS011;39642;47.556;18.728;2023-03-23T02:40:55;10.75;;;3.90;;
51248;SDS011;39642;47.556;18.728;2023-03-23T02:43:25;11.25;;;3.90;;
51248;SDS011;39642;47.556;18.728;2023-03-23T02:45:54;10.73;;;3.80;;
51248;SDS011;39642;47.556;18.728;2023-03-23T02:48:24;10.98;;;3.90;;
51248;SDS011;39642;47.556;18.728;2023-03-23T02:50:54;11.27;;;3.92;;
51248;SDS011;39642;47.556;18.728;2023-03-23T02:53:22;9.38;;;3.78;;
51248;SDS011;39642;47.556;18.728;2023-03-23T02:55:50;10.75;;;3.92;;
51248;SDS011;39642;47.556;18.728;2023-03-23T02:58:18;10.00;;;3.53;;
51248;SDS011;39642;47.556;18.728;2023-03-23T03:00:45;10.73;;;4.00;;
51248;SDS011;39642;47.556;18.728;2023-03-23T03:03:18;10.68;;;3.92;;
51248;SDS011;39642;47.556;18.728;2023-03-23T03:08:50;9.73;;;3.55;;
51248;SDS011;39642;47.556;18.728;2023-03-23T03:11:20;10.20;;;3.55;;
51248;SDS011;39642;47.556;18.728;2023-03-23T03:13:58;9.77;;;3.80;;
51248;SDS011;39642;47.556;18.728;2023-03-23T03:16:46;9.48;;;3.70;;
51248;SDS011;39642;47.556;18.728;2023-03-23T03:19:48;9.77;;;3.72;;
51248;SDS011;39642;47.556;18.728;2023-03-23T03:22:17;9.88;;;3.42;;
51248;SDS011;39642;47.556;18.728;2023-03-23T03:24:46;9.85;;;3.72;;
51248;SDS011;39642;47.556;18.728;2023-03-23T03:27:15;9.82;;;3.70;;
51248;SDS011;39642;47.556;18.728;2023-03-23T03:29:44;9.13;;;3.08;;
51248;SDS011;39642;47.556;18.728;2023-03-23T03:32:17;9.48;;;3.45;;
51248;SDS011;39642;47.556;18.728;2023-03-23T03:34:48;9.88;;;3.53;;
51248;SDS011;39642;47.556;18.728;2023-03-23T03:37:16;10.00;;;3.70;;
51248;SDS011;39642;47.556;18.728;2023-03-23T03:39:44;8.93;;;3.40;;
51248;SDS011;39642;47.556;18.728;2023-03-23T03:42:10;10.23;;;3.72;;
51248;SDS011;39642;47.556;18.728;2023-03-23T03:44:36;9.20;;;3.30;;
51248;SDS011;39642;47.556;18.728;2023-03-23T03:47:02;8.55;;;2.83;;
51248;SDS011;39642;47.556;18.728;2023-03-23T03:49:28;9.30;;;3.40;;
51248;SDS011;39642;47.556;18.728;2023-03-23T03:51:54;10.02;;;3.50;;
51248;SDS011;39642;47.556;18.728;2023-03-23T03:54:19;9.73;;;3.53;;
51248;SDS011;39642;47.556;18.728;2023-03-23T03:56:45;10.68;;;3.45;;
51248;SDS011;39642;47.556;18.728;2023-03-23T03:59:12;8.88;;;3.20;;
51248;SDS011;39642;47.556;18.728;2023-03-23T04:01:38;9.88;;;3.42;;
51248;SDS011;39642;47.556;18.728;2023-03-23T04:04:04;9.18;;;3.55;;
51248;SDS011;39642;47.556;18.728;2023-03-23T04:06:32;9.07;;;3.40;;
51248;SDS011;39642;47.556;18.728;2023-03-23T04:09:02;9.73;;;3.20;;
51248;SDS011;39642;47.556;18.728;2023-03-23T04:11:31;9.25;;;3.15;;
51248;SDS011;39642;47.556;18.728;2023-03-23T04:13:58;9.52;;;3.40;;
51248;SDS011;39642;47.556;18.728;2023-03-23T04:16:23;8.73;;;3.33;;
51248;SDS011;39642;47.556;18.728;2023-03-23T04:18:51;10.18;;;3.58;;
51248;SDS011;39642;47.556;18.728;2023-03-23T04:21:17;10.65;;;3.37;;
51248;SDS011;39642;47.556;18.728;2023-03-23T04:23:43;9.10;;;3.30;;
51248;SDS011;39642;47.556;18.728;2023-03-23T04:26:09;10.05;;;3.72;;
51248;SDS011;39642;47.556;18.728;2023-03-23T04:28:39;9.73;;;3.30;;
51248;SDS011;39642;47.556;18.728;2023-03-23T04:31:06;10.60;;;3.28;;
51248;SDS011;39642;47.556;18.728;2023-03-23T04:33:32;8.60;;;3.17;;
51248;SDS011;39642;47.556;18.728;2023-03-23T04:35:59;9.73;;;3.10;;
51248;SDS011;39642;47.556;18.728;2023-03-23T04:38:26;9.85;;;3.25;;
51248;SDS011;39642;47.556;18.728;2023-03-23T04:40:54;9.25;;;3.37;;
51248;SDS011;39642;47.556;18.728;2023-03-23T04:43:21;9.32;;;3.00;;
51248;SDS011;39642;47.556;18.728;2023-03-23T04:45:56;9.40;;;3.37;;
51248;SDS011;39642;47.556;18.728;2023-03-23T04:48:27;9.82;;;3.25;;
51248;SDS011;39642;47.556;18.728;2023-03-23T04:50:55;10.88;;;3.35;;
51248;SDS011;39642;47.556;18.728;2023-03-23T04:53:21;9.43;;;3.05;;
51248;SDS011;39642;47.556;18.728;2023-03-23T04:55:47;9.15;;;3.33;;
51248;SDS011;39642;47.556;18.728;2023-03-23T04:58:14;10.48;;;3.40;;
51248;SDS011;39642;47.556;18.728;2023-03-23T05:00:41;10.18;;;3.60;;
51248;SDS011;39642;47.556;18.728;2023-03-23T05:03:18;10.25;;;3.62;;
51248;SDS011;39642;47.556;18.728;2023-03-23T05:05:45;10.55;;;3.60;;
51248;SDS011;39642;47.556;18.728;2023-03-23T05:08:21;9.10;;;3.30;;
51248;SDS011;39642;47.556;18.728;2023-03-23T05:10:51;9.38;;;3.28;;
51248;SDS011;39642;47.556;18.728;2023-03-23T05:13:21;9.57;;;3.40;;
51248;SDS011;39642;47.556;18.728;2023-03-23T05:15:48;9.38;;;3.17;;
51248;SDS011;39642;47.556;18.728;2023-03-23T05:18:14;9.48;;;3.40;;
51248;SDS011;39642;47.556;18.728;2023-03-23T05:20:41;10.07;;;3.40;;
51248;SDS011;39642;47.556;18.728;2023-03-23T05:23:08;9.70;;;3.65;;
51248;SDS011;39642;47.556;18.728;2023-03-23T05:25:35;8.98;;;3.30;;
51248;SDS011;39642;47.556;18.728;2023-03-23T05:28:14;10.48;;;3.60;;
51248;SDS011;39642;47.556;18.728;2023-03-23T05:30:40;9.77;;;3.55;;
51248;SDS011;39642;47.556;18.728;2023-03-23T05:33:06;10.65;;;3.92;;
51248;SDS011;39642;47.556;18.728;2023-03-23T05:35:32;9.23;;;3.30;;
51248;SDS011;39642;47.556;18.728;2023-03-23T05:37:58;9.88;;;3.60;;
51248;SDS011;39642;47.556;18.728;2023-03-23T05:40:23;13.52;;;3.92;;
51248;SDS011;39642;47.556;18.728;2023-03-23T05:42:51;9.93;;;3.35;;
51248;SDS011;39642;47.556;18.728;2023-03-23T05:45:18;12.40;;;3.70;;
51248;SDS011;39642;47.556;18.728;2023-03-23T05:47:44;8.90;;;3.30;;
51248;SDS011;39642;47.556;18.728;2023-03-23T05:50:12;10.52;;;3.45;;
51248;SDS011;39642;47.556;18.728;2023-03-23T05:52:39;10.55;;;3.53;;
51248;SDS011;39642;47.556;18.728;2023-03-23T05:55:05;10.98;;;3.72;;
51248;SDS011;39642;47.556;18.728;2023-03-23T05:57:33;10.55;;;4.00;;
51248;SDS011;39642;47.556;18.728;2023-03-23T05:59:59;12.90;;;4.40;;
51248;SDS011;39642;47.556;18.728;2023-03-23T06:02:25;11.80;;;4.43;;
51248;SDS011;39642;47.556;18.728;2023-03-23T06:04:53;11.32;;;4.53;;
51248;SDS011;39642;47.556;18.728;2023-03-23T06:07:25;12.65;;;4.53;;
51248;SDS011;39642;47.556;18.728;2023-03-23T06:09:51;11.02;;;4.25;;
51248;SDS011;39642;47.556;18.728;2023-03-23T06:12:18;14.15;;;4.78;;
51248;SDS011;39642;47.556;18.728;2023-03-23T06:14:46;15.10;;;5.18;;
51248;SDS011;39642;47.556;18.728;2023-03-23T06:17:13;12.50;;;4.55;;
51248;SDS011;39642;47.556;18.728;2023-03-23T06:19:42;21.50;;;8.93;;
51248;SDS011;39642;47.556;18.728;2023-03-23T06:22:11;24.45;;;8.23;;
51248;SDS011;39642;47.556;18.728;2023-03-23T07:16:14;17.62;;;6.40;;
51248;SDS011;39642;47.556;18.728;2023-03-23T07:18:41;20.73;;;6.80;;
51248;SDS011;39642;47.556;18.728;2023-03-23T07:21:06;19.80;;;7.40;;
51248;SDS011;39642;47.556;18.728;2023-03-23T07:23:33;17.77;;;6.40;;
51248;SDS011;39642;47.556;18.728;2023-03-23T07:25:59;22.08;;;6.78;;
51248;SDS011;39642;47.556;18.728;2023-03-23T07:28:26;17.27;;;6.80;;
51248;SDS011;39642;47.556;18.728;2023-03-23T07:30:51;21.80;;;7.20;;
51248;SDS011;39642;47.556;18.728;2023-03-23T07:33:17;21.67;;;6.47;;
51248;SDS011;39642;47.556;18.728;2023-03-23T07:35:44;16.92;;;6.50;;
51248;SDS011;39642;47.556;18.728;2023-03-23T07:38:10;19.27;;;6.12;;
51248;SDS011;39642;47.556;18.728;2023-03-23T07:40:36;22.50;;;6.05;;
51248;SDS011;39642;47.556;18.728;2023-03-23T07:43:02;17.92;;;5.87;;
51248;SDS011;39642;47.556;18.728;2023-03-23T07:45:30;18.17;;;6.53;;
51248;SDS011;39642;47.556;18.728;2023-03-23T07:47:56;17.77;;;5.45;;
51248;SDS011;39642;47.556;18.728;2023-03-23T07:50:22;17.67;;;5.78;;
51248;SDS011;39642;47.556;18.728;2023-03-23T07:52:50;14.55;;;5.10;;
51248;SDS011;39642;47.556;18.728;2023-03-23T07:55:18;15.18;;;5.20;;
51248;SDS011;39642;47.556;18.728;2023-03-23T07:57:44;15.65;;;5.20;;
51248;SDS011;39642;47.556;18.728;2023-03-23T08:00:12;21.85;;;5.70;;
51248;SDS011;39642;47.556;18.728;2023-03-23T08:02:47;18.02;;;5.55;;
51248;SDS011;39642;47.556;18.728;2023-03-23T08:05:15;22.35;;;7.55;;
51248;SDS011;39642;47.556;18.728;2023-03-23T08:07:43;20.60;;;6.50;;
51248;SDS011;39642;47.556;18.728;2023-03-23T08:10:13;18.25;;;6.43;;
51248;SDS011;39642;47.556;18.728;2023-03-23T08:12:41;21.60;;;6.22;;
51248;SDS011;39642;47.556;18.728;2023-03-23T08:15:09;16.17;;;5.75;;
51248;SDS011;39642;47.556;18.728;2023-03-23T08:17:40;18.77;;;6.10;;
51248;SDS011;39642;47.556;18.728;2023-03-23T08:20:07;21.23;;;5.95;;
51248;SDS011;39642;47.556;18.728;2023-03-23T08:22:38;17.45;;;5.50;;
51248;SDS011;39642;47.556;18.728;2023-03-23T08:25:05;24.58;;;6.35;;
51248;SDS011;39642;47.556;18.728;2023-03-23T08:27:33;16.52;;;5.22;;
51248;SDS011;39642;47.556;18.728;2023-03-23T08:29:59;17.50;;;5.10;;
51248;SDS011;39642;47.556;18.728;2023-03-23T08:32:26;18.35;;;5.47;;
51248;SDS011;39642;47.556;18.728;2023-03-23T08:34:52;20.75;;;5.28;;
51248;SDS011;39642;47.556;18.728;2023-03-23T08:37:18;18.02;;;5.30;;
51248;SDS011;39642;47.556;18.728;2023-03-23T08:39:44;21.12;;;5.47;;
51248;SDS011;39642;47.556;18.728;2023-03-23T08:42:11;20.62;;;5.43;;
51248;SDS011;39642;47.556;18.728;2023-03-23T08:44:37;21.08;;;5.50;;
51248;SDS011;39642;47.556;18.728;2023-03-23T08:47:03;28.90;;;5.47;;
51248;SDS011;39642;47.556;18.728;2023-03-23T08:49:30;25.98;;;5.82;;
51248;SDS011;39642;47.556;18.728;2023-03-23T08:51:59;22.50;;;6.28;;
51248;SDS011;39642;47.556;18.728;2023-03-23T08:54:25;19.02;;;6.05;;
51248;SDS011;39642;47.556;18.728;2023-03-23T08:56:51;19.40;;;6.47;;
51248;SDS011;39642;47.556;18.728;2023-03-23T08:59:18;18.40;;;5.80;;
51248;SDS011;39642;47.556;18.728;2023-03-23T09:01:44;26.80;;;6.43;;
51248;SDS011;39642;47.556;18.728;2023-03-23T09:04:11;28.85;;;6.60;;
51248;SDS011;39642;47.556;18.728;2023-03-23T09:06:37;33.20;;;7.62;;
51248;SDS011;39642;47.556;18.728;2023-03-23T09:09:03;26.95;;;6.00;;
51248;SDS011;39642;47.556;18.728;2023-03-23T09:11:35;29.58;;;6.30;;
51248;SDS011;39642;47.556;18.728;2023-03-23T09:14:02;23.10;;;6.22;;
51248;SDS011;39642;47.556;18.728;2023-03-23T09:16:29;27.70;;;6.68;;
51248;SDS011;39642;47.556;18.728;2023-03-23T09:18:56;32.10;;;5.95;;
51248;SDS011;39642;47.556;18.728;2023-03-23T09:21:24;25.15;;;6.30;;
51248;SDS011;39642;47.556;18.728;2023-03-23T09:23:50;19.23;;;5.62;;
51248;SDS011;39642;47.556;18.728;2023-03-23T09:26:17;23.75;;;5.82;;
51248;SDS011;39642;47.556;18.728;2023-03-23T09:28:43;18.05;;;5.47;;
51248;SDS011;39642;47.556;18.728;2023-03-23T09:31:10;23.40;;;6.05;;
51248;SDS011;39642;47.556;18.728;2023-03-23T09:33:38;19.35;;;5.62;;
51248;SDS011;39642;47.556;18.728;2023-03-23T09:36:04;17.60;;;5.47;;
51248;SDS011;39642;47.556;18.728;2023-03-23T09:38:31;17.87;;;5.43;;
51248;SDS011;39642;47.556;18.728;2023-03-23T09:41:14;23.05;;;5.40;;
51248;SDS011;39642;47.556;18.728;2023-03-23T09:47:03;35.55;;;5.72;;
51248;SDS011;39642;47.556;18.728;2023-03-23T09:52:20;24.98;;;5.62;;
51248;SDS011;39642;47.556;18.728;2023-03-23T09:54:51;22.00;;;4.60;;
51248;SDS011;39642;47.556;18.728;2023-03-23T09:57:28;18.92;;;3.97;;
51248;SDS011;39642;47.556;18.728;2023-03-23T10:00:10;20.73;;;4.85;;
51248;SDS011;39642;47.556;18.728;2023-03-23T10:03:05;19.48;;;4.25;;
51248;SDS011;39642;47.556;18.728;2023-03-23T10:08:03;23.30;;;4.20;;
51248;SDS011;39642;47.556;18.728;2023-03-23T10:14:07;14.43;;;4.00;;
51248;SDS011;39642;47.556;18.728;2023-03-23T10:16:27;21.12;;;4.07;;
51248;SDS011;39642;47.556;18.728;2023-03-23T10:21:50;20.20;;;4.05;;
51248;SDS011;39642;47.556;18.728;2023-03-23T10:24:27;19.70;;;4.00;;
51248;SDS011;39642;47.556;18.728;2023-03-23T10:27:10;17.87;;;4.50;;
51248;SDS011;39642;47.556;18.728;2023-03-23T10:33:03;15.95;;;4.25;;
51248;SDS011;39642;47.556;18.728;2023-03-23T10:35:54;17.80;;;4.60;;
51248;SDS011;39642;47.556;18.728;2023-03-23T10:38:31;16.17;;;4.20;;
51248;SDS011;39642;47.556;18.728;2023-03-23T10:41:04;18.02;;;4.60;;
51248;SDS011;39642;47.556;18.728;2023-03-23T10:43:37;26.42;;;4.90;;
51248;SDS011;39642;47.556;18.728;2023-03-23T10:46:15;25.37;;;4.43;;
51248;SDS011;39642;47.556;18.728;2023-03-23T10:49:06;28.40;;;5.20;;
51248;SDS011;39642;47.556;18.728;2023-03-23T10:51:39;26.45;;;5.12;;
51248;SDS011;39642;47.556;18.728;2023-03-23T10:54:09;25.70;;;5.62;;
51248;SDS011;39642;47.556;18.728;2023-03-23T10:56:40;15.60;;;5.05;;
51248;SDS011;39642;47.556;18.728;2023-03-23T10:59:11;12.85;;;5.10;;
51248;SDS011;39642;47.556;18.728;2023-03-23T11:01:50;15.40;;;5.03;;
51248;SDS011;39642;47.556;18.728;2023-03-23T11:04:18;14.23;;;4.90;;
51248;SDS011;39642;47.556;18.728;2023-03-23T11:06:45;18.30;;;4.85;;
51248;SDS011;39642;47.556;18.728;2023-03-23T11:09:15;17.40;;;4.90;;
51248;SDS011;39642;47.556;18.728;2023-03-23T11:11:49;14.90;;;4.57;;
51248;SDS011;39642;47.556;18.728;2023-03-23T11:14:24;15.13;;;4.30;;
51248;SDS011;39642;47.556;18.728;2023-03-23T11:17:02;14.18;;;4.00;;
51248;SDS011;39642;47.556;18.728;2023-03-23T11:19:33;11.73;;;3.90;;
51248;SDS011;39642;47.556;18.728;2023-03-23T11:24:31;13.70;;;3.90;;
51248;SDS011;39642;47.556;18.728;2023-03-23T11:26:59;10.63;;;3.75;;
51248;SDS011;39642;47.556;18.728;2023-03-23T11:29:26;10.02;;;3.28;;
51248;SDS011;39642;47.556;18.728;2023-03-23T11:34:37;13.95;;;3.83;;
51248;SDS011;39642;47.556;18.728;2023-03-23T11:37:09;20.00;;;4.05;;
51248;SDS011;39642;47.556;18.728;2023-03-23T11:39:48;32.05;;;4.90;;
51248;SDS011;39642;47.556;18.728;2023-03-23T11:42:26;22.35;;;4.37;;
51248;SDS011;39642;47.556;18.728;2023-03-23T11:45:35;30.35;;;4.50;;
51248;SDS011;39642;47.556;18.728;2023-03-23T11:48:13;26.42;;;4.28;;
51248;SDS011;39642;47.556;18.728;2023-03-23T11:51:02;20.60;;;4.20;;
51248;SDS011;39642;47.556;18.728;2023-03-23T11:58:54;41.75;;;4.85;;
51248;SDS011;39642;47.556;18.728;2023-03-23T12:06:51;22.33;;;3.58;;
51248;SDS011;39642;47.556;18.728;2023-03-23T12:15:23;14.82;;;2.83;;
51248;SDS011;39642;47.556;18.728;2023-03-23T12:17:43;11.40;;;3.12;;
51248;SDS011;39642;47.556;18.728;2023-03-23T12:39:43;21.90;;;3.25;;
51248;SDS011;39642;47.556;18.728;2023-03-23T12:42:37;13.27;;;3.20;;
51248;SDS011;39642;47.556;18.728;2023-03-23T12:53:08;26.77;;;3.60;;
51248;SDS011;39642;47.556;18.728;2023-03-23T12:55:44;23.95;;;3.75;;
51248;SDS011;39642;47.556;18.728;2023-03-23T12:58:19;16.80;;;3.22;;
51248;SDS011;39642;47.556;18.728;2023-03-23T13:00:56;17.87;;;3.30;;
51248;SDS011;39642;47.556;18.728;2023-03-23T13:06:04;12.93;;;2.97;;
51248;SDS011;39642;47.556;18.728;2023-03-23T13:08:39;10.73;;;3.00;;
51248;SDS011;39642;47.556;18.728;2023-03-23T13:11:15;8.57;;;2.90;;
51248;SDS011;39642;47.556;18.728;2023-03-23T13:19:02;11.88;;;3.30;;
51248;SDS011;39642;47.556;18.728;2023-03-23T13:21:43;12.80;;;2.97;;
51248;SDS011;39642;47.556;18.728;2023-03-23T13:24:24;12.13;;;3.00;;
51248;SDS011;39642;47.556;18.728;2023-03-23T13:26:53;12.40;;;2.67;;
51248;SDS011;39642;47.556;18.728;2023-03-23T13:29:23;21.55;;;4.55;;
51248;SDS011;39642;47.556;18.728;2023-03-23T13:31:50;32.30;;;4.37;;
51248;SDS011;39642;47.556;18.728;2023-03-23T13:34:18;21.02;;;3.45;;
51248;SDS011;39642;47.556;18.728;2023-03-23T13:36:54;24.50;;;4.03;;
51248;SDS011;39642;47.556;18.728;2023-03-23T13:39:29;16.70;;;3.35;;
51248;SDS011;39642;47.556;18.728;2023-03-23T13:42:00;29.63;;;4.18;;
51248;SDS011;39642;47.556;18.728;2023-03-23T13:47:15;17.02;;;3.28;;
51248;SDS011;39642;47.556;18.728;2023-03-23T13:49:58;13.40;;;3.15;;
51248;SDS011;39642;47.556;18.728;2023-03-23T13:55:31;16.55;;;3.47;;
51248;SDS011;39642;47.556;18.728;2023-03-23T14:05:38;14.73;;;3.15;;
51248;SDS011;39642;47.556;18.728;2023-03-23T14:10:34;12.48;;;3.47;;
51248;SDS011;39642;47.556;18.728;2023-03-23T14:13:03;14.45;;;3.30;;
51248;SDS011;39642;47.556;18.728;2023-03-23T14:15:53;19.67;;;3.60;;
51248;SDS011;39642;47.556;18.728;2023-03-23T14:18:22;16.35;;;3.53;;
51248;SDS011;39642;47.556;18.728;2023-03-23T14:20:52;12.60;;;3.10;;
51248;SDS011;39642;47.556;18.728;2023-03-23T14:23:18;15.50;;;3.50;;
51248;SDS011;39642;47.556;18.728;2023-03-23T14:25:53;16.73;;;3.67;;
51248;SDS011;39642;47.556;18.728;2023-03-23T14:28:21;18.37;;;3.42;;
51248;SDS011;39642;47.556;18.728;2023-03-23T14:30:49;15.73;;;3.42;;
51248;SDS011;39642;47.556;18.728;2023-03-23T14:33:19;16.45;;;3.20;;
51248;SDS011;39642;47.556;18.728;2023-03-23T14:35:45;23.12;;;4.03;;
51248;SDS011;39642;47.556;18.728;2023-03-23T14:38:19;16.05;;;3.85;;
51248;SDS011;39642;47.556;18.728;2023-03-23T14:40:49;17.20;;;3.60;;
51248;SDS011;39642;47.556;18.728;2023-03-23T14:43:16;12.98;;;3.08;;
51248;SDS011;39642;47.556;18.728;2023-03-23T14:45:44;19.45;;;4.00;;
51248;SDS011;39642;47.556;18.728;2023-03-23T14:48:13;24.52;;;3.80;;
51248;SDS011;39642;47.556;18.728;2023-03-23T14:50:42;21.37;;;4.03;;
51248;SDS011;39642;47.556;18.728;2023-03-23T14:53:28;18.17;;;4.05;;
51248;SDS011;39642;47.556;18.728;2023-03-23T14:55:59;18.67;;;3.17;;
51248;SDS011;39642;47.556;18.728;2023-03-23T14:58:32;15.82;;;3.08;;
51248;SDS011;39642;47.556;18.728;2023-03-23T15:00:59;17.25;;;3.10;;
51248;SDS011;39642;47.556;18.728;2023-03-23T15:03:29;17.55;;;3.55;;
51248;SDS011;39642;47.556;18.728;2023-03-23T15:06:10;11.77;;;3.25;;
51248;SDS011;39642;47.556;18.728;2023-03-23T15:08:40;11.43;;;3.22;;
51248;SDS011;39642;47.556;18.728;2023-03-23T15:11:13;11.02;;;3.45;;
51248;SDS011;39642;47.556;18.728;2023-03-23T15:13:51;16.85;;;3.92;;
51248;SDS011;39642;47.556;18.728;2023-03-23T15:16:22;24.50;;;4.18;;
51248;SDS011;39642;47.556;18.728;2023-03-23T15:18:51;19.05;;;3.90;;
51248;SDS011;39642;47.556;18.728;2023-03-23T15:21:22;13.65;;;3.85;;
51248;SDS011;39642;47.556;18.728;2023-03-23T15:23:52;12.20;;;3.22;;
51248;SDS011;39642;47.556;18.728;2023-03-23T15:26:28;17.30;;;3.33;;
51248;SDS011;39642;47.556;18.728;2023-03-23T15:31:51;14.18;;;3.35;;
51248;SDS011;39642;47.556;18.728;2023-03-23T15:34:30;14.23;;;3.60;;
51248;SDS011;39642;47.556;18.728;2023-03-23T15:37:02;17.62;;;3.58;;
51248;SDS011;39642;47.556;18.728;2023-03-23T15:39:30;11.18;;;3.67;;
51248;SDS011;39642;47.556;18.728;2023-03-23T15:41:58;14.63;;;3.97;;
51248;SDS011;39642;47.556;18.728;2023-03-23T15:44:29;14.55;;;4.22;;
51248;SDS011;39642;47.556;18.728;2023-03-23T15:47:16;13.73;;;3.92;;
51248;SDS011;39642;47.556;18.728;2023-03-23T15:49:44;14.95;;;3.55;;
51248;SDS011;39642;47.556;18.728;2023-03-23T15:52:11;12.93;;;3.28;;
51248;SDS011;39642;47.556;18.728;2023-03-23T15:54:38;10.20;;;3.37;;
51248;SDS011;39642;47.556;18.728;2023-03-23T15:57:11;13.43;;;3.65;;
51248;SDS011;39642;47.556;18.728;2023-03-23T15:59:37;13.20;;;3.42;;
51248;SDS011;39642;47.556;18.728;2023-03-23T16:02:02;17.20;;;3.85;;
51248;SDS011;39642;47.556;18.728;2023-03-23T16:04:29;16.05;;;3.95;;
51248;SDS011;39642;47.556;18.728;2023-03-23T16:06:55;14.60;;;3.72;;
51248;SDS011;39642;47.556;18.728;2023-03-23T16:09:23;12.73;;;4.10;;
51248;SDS011;39642;47.556;18.728;2023-03-23T16:11:49;13.48;;;4.05;;
51248;SDS011;39642;47.556;18.728;2023-03-23T16:14:15;13.05;;;4.40;;
51248;SDS011;39642;47.556;18.728;2023-03-23T16:16:45;12.20;;;4.65;;
51248;SDS011;39642;47.556;18.728;2023-03-23T16:19:13;18.67;;;4.87;;
51248;SDS011;39642;47.556;18.728;2023-03-23T16:21:40;13.90;;;4.97;;
51248;SDS011;39642;47.556;18.728;2023-03-23T16:24:07;14.60;;;5.68;;
51248;SDS011;39642;47.556;18.728;2023-03-23T16:26:34;13.62;;;5.65;;
51248;SDS011;39642;47.556;18.728;2023-03-23T16:29:01;13.75;;;5.82;;
51248;SDS011;39642;47.556;18.728;2023-03-23T16:31:27;16.67;;;6.75;;
51248;SDS011;39642;47.556;18.728;2023-03-23T16:33:54;15.05;;;6.50;;
51248;SDS011;39642;47.556;18.728;2023-03-23T16:36:20;14.82;;;7.30;;
51248;SDS011;39642;47.556;18.728;2023-03-23T16:38:46;16.50;;;7.22;;
51248;SDS011;39642;47.556;18.728;2023-03-23T16:41:12;14.27;;;7.00;;
51248;SDS011;39642;47.556;18.728;2023-03-23T16:43:37;15.93;;;7.75;;
51248;SDS011;39642;47.556;18.728;2023-03-23T16:46:08;16.08;;;7.37;;
51248;SDS011;39642;47.556;18.728;2023-03-23T16:48:37;15.02;;;6.85;;
51248;SDS011;39642;47.556;18.728;2023-03-23T16:51:04;16.55;;;6.82;;
51248;SDS011;39642;47.556;18.728;2023-03-23T16:53:31;15.85;;;6.75;;
51248;SDS011;39642;47.556;18.728;2023-03-23T16:56:06;17.67;;;7.00;;
51248;SDS011;39642;47.556;18.728;2023-03-23T16:58:38;15.00;;;6.00;;
51248;SDS011;39642;47.556;18.728;2023-03-23T17:01:04;14.32;;;6.07;;
51248;SDS011;39642;47.556;18.728;2023-03-23T17:03:30;14.60;;;6.05;;
51248;SDS011;39642;47.556;18.728;2023-03-23T17:05:56;14.40;;;5.93;;
51248;SDS011;39642;47.556;18.728;2023-03-23T17:08:24;14.40;;;5.90;;
51248;SDS011;39642;47.556;18.728;2023-03-23T17:10:50;13.20;;;6.05;;
51248;SDS011;39642;47.556;18.728;2023-03-23T17:13:16;16.00;;;6.25;;
51248;SDS011;39642;47.556;18.728;2023-03-23T17:15:42;14.38;;;6.03;;
51248;SDS011;39642;47.556;18.728;2023-03-23T17:18:10;14.30;;;5.90;;
51248;SDS011;39642;47.556;18.728;2023-03-23T17:20:35;14.30;;;5.62;;
51248;SDS011;39642;47.556;18.728;2023-03-23T17:23:02;13.88;;;5.90;;